sensor_id;sensor_type;location;lat;lon;timestamp;temperature;humidity
38221;DHT22;24023;51.280;7.148;2022-11-14T00:00:12;11.7;75.4
38221;DHT22;24023;51.280;7.148;2022-11-14T00:05:08;11.8;73.9
38221;DHT22;24023;51.280;7.148;2022-11-14T00:10:08;11.8;73.9
38221;DHT22;24023;51.280;7.148;2022-11-14T00:15:08;11.7;74.5
38221;DHT22;24023;51.280;7.148;2022-11-14T00:20:10;11.7;74.9
38221;DHT22;24023;51.280;7.148;2022-11-14T00:25:08;11.7;74.9
38221;DHT22;24023;51.280;7.148;2022-11-14T00:30:11;11.8;75.0
38221;DHT22;24023;51.280;7.148;2022-11-14T00:35:07;11.8;75.0
38221;DHT22;24023;51.280;7.148;2022-11-14T00:40:08;11.8;75.0
38221;DHT22;24023;51.280;7.148;2022-11-14T00:45:10;11.6;75.8
38221;DHT22;24023;51.280;7.148;2022-11-14T00:50:09;11.6;75.8
38221;DHT22;24023;51.280;7.148;2022-11-14T00:55:07;11.7;76.2
38221;DHT22;24023;51.280;7.148;2022-11-14T01:00:13;11.7;76.2
38221;DHT22;24023;51.280;7.148;2022-11-14T01:05:06;11.7;76.4
38221;DHT22;24023;51.280;7.148;2022-11-14T01:10:08;11.7;76.4
38221;DHT22;24023;51.280;7.148;2022-11-14T01:15:08;11.7;76.4
38221;DHT22;24023;51.280;7.148;2022-11-14T01:20:08;11.8;76.8
38221;DHT22;24023;51.280;7.148;2022-11-14T01:25:07;11.8;76.8
38221;DHT22;24023;51.280;7.148;2022-11-14T01:30:10;11.7;77.1
38221;DHT22;24023;51.280;7.148;2022-11-14T01:35:07;11.7;77.1
38221;DHT22;24023;51.280;7.148;2022-11-14T01:40:09;11.7;77.1
38221;DHT22;24023;51.280;7.148;2022-11-14T01:46:20;11.7;78.1
38221;DHT22;24023;51.280;7.148;2022-11-14T01:50:09;11.7;78.1
38221;DHT22;24023;51.280;7.148;2022-11-14T01:55:08;11.3;79.0
38221;DHT22;24023;51.280;7.148;2022-11-14T02:00:12;11.3;79.0
38221;DHT22;24023;51.280;7.148;2022-11-14T02:05:09;11.3;79.0
38221;DHT22;24023;51.280;7.148;2022-11-14T02:10:13;11.0;80.5
38221;DHT22;24023;51.280;7.148;2022-11-14T02:15:08;11.0;80.5
38221;DHT22;24023;51.280;7.148;2022-11-14T02:20:19;10.9;81.8
38221;DHT22;24023;51.280;7.148;2022-11-14T02:25:08;10.9;81.8
38221;DHT22;24023;51.280;7.148;2022-11-14T02:30:13;10.9;83.0
38221;DHT22;24023;51.280;7.148;2022-11-14T02:35:07;10.9;83.0
38221;DHT22;24023;51.280;7.148;2022-11-14T02:40:09;10.9;83.0
38221;DHT22;24023;51.280;7.148;2022-11-14T02:45:10;10.8;83.7
38221;DHT22;24023;51.280;7.148;2022-11-14T02:50:08;10.8;83.7
38221;DHT22;24023;51.280;7.148;2022-11-14T02:55:07;10.7;84.7
38221;DHT22;24023;51.280;7.148;2022-11-14T03:00:13;10.7;84.7
38221;DHT22;24023;51.280;7.148;2022-11-14T03:05:06;10.7;84.7
38221;DHT22;24023;51.280;7.148;2022-11-14T03:10:09;10.6;85.8
38221;DHT22;24023;51.280;7.148;2022-11-14T03:15:09;10.6;85.8
38221;DHT22;24023;51.280;7.148;2022-11-14T03:20:09;10.6;86.4
38221;DHT22;24023;51.280;7.148;2022-11-14T03:25:07;10.6;86.4
38221;DHT22;24023;51.280;7.148;2022-11-14T03:30:10;10.6;86.4
38221;DHT22;24023;51.280;7.148;2022-11-14T03:35:07;10.6;86.5
38221;DHT22;24023;51.280;7.148;2022-11-14T03:40:09;10.6;86.5
38221;DHT22;24023;51.280;7.148;2022-11-14T03:45:10;10.5;87.2
38221;DHT22;24023;51.280;7.148;2022-11-14T03:50:08;10.5;87.2
38221;DHT22;24023;51.280;7.148;2022-11-14T03:55:07;10.1;89.4
38221;DHT22;24023;51.280;7.148;2022-11-14T04:00:11;10.1;89.4
38221;DHT22;24023;51.280;7.148;2022-11-14T04:05:10;10.1;89.4
38221;DHT22;24023;51.280;7.148;2022-11-14T04:10:08;10.3;89.4
38221;DHT22;24023;51.280;7.148;2022-11-14T04:15:07;10.3;89.4
38221;DHT22;24023;51.280;7.148;2022-11-14T04:20:09;10.1;89.7
38221;DHT22;24023;51.280;7.148;2022-11-14T04:25:08;10.1;89.7
38221;DHT22;24023;51.280;7.148;2022-11-14T04:30:10;10.1;90.1
38221;DHT22;24023;51.280;7.148;2022-11-14T04:35:07;10.1;90.1
38221;DHT22;24023;51.280;7.148;2022-11-14T04:40:08;10.1;90.1
38221;DHT22;24023;51.280;7.148;2022-11-14T04:45:09;9.8;90.9
38221;DHT22;24023;51.280;7.148;2022-11-14T04:50:09;9.8;90.9
38221;DHT22;24023;51.280;7.148;2022-11-14T04:55:07;9.8;91.5
38221;DHT22;24023;51.280;7.148;2022-11-14T05:00:13;9.8;91.5
38221;DHT22;24023;51.280;7.148;2022-11-14T05:05:07;9.8;91.5
38221;DHT22;24023;51.280;7.148;2022-11-14T05:10:09;9.7;92.0
38221;DHT22;24023;51.280;7.148;2022-11-14T05:15:09;9.7;92.0
38221;DHT22;24023;51.280;7.148;2022-11-14T05:20:09;9.5;92.4
38221;DHT22;24023;51.280;7.148;2022-11-14T05:25:08;9.5;92.4
38221;DHT22;24023;51.280;7.148;2022-11-14T05:30:10;9.5;92.4
38221;DHT22;24023;51.280;7.148;2022-11-14T05:35:07;9.5;92.9
38221;DHT22;24023;51.280;7.148;2022-11-14T05:40:09;9.5;92.9
38221;DHT22;24023;51.280;7.148;2022-11-14T05:45:11;9.5;92.4
38221;DHT22;24023;51.280;7.148;2022-11-14T05:50:09;9.5;92.4
38221;DHT22;24023;51.280;7.148;2022-11-14T05:55:07;9.5;92.4
38221;DHT22;24023;51.280;7.148;2022-11-14T06:00:12;9.3;93.1
38221;DHT22;24023;51.280;7.148;2022-11-14T06:05:07;9.3;93.1
38221;DHT22;24023;51.280;7.148;2022-11-14T06:10:08;9.2;93.1
38221;DHT22;24023;51.280;7.148;2022-11-14T06:15:08;9.2;93.1
38221;DHT22;24023;51.280;7.148;2022-11-14T06:20:08;9.1;93.4
38221;DHT22;24023;51.280;7.148;2022-11-14T06:25:07;9.1;93.4
38221;DHT22;24023;51.280;7.148;2022-11-14T06:30:09;9.1;93.4
38221;DHT22;24023;51.280;7.148;2022-11-14T06:35:08;9.2;93.9
38221;DHT22;24023;51.280;7.148;2022-11-14T06:40:09;9.2;93.9
38221;DHT22;24023;51.280;7.148;2022-11-14T06:45:10;9.0;94.0
38221;DHT22;24023;51.280;7.148;2022-11-14T06:50:08;9.0;94.0
38221;DHT22;24023;51.280;7.148;2022-11-14T06:55:07;9.0;94.0
38221;DHT22;24023;51.280;7.148;2022-11-14T07:00:12;9.0;94.0
38221;DHT22;24023;51.280;7.148;2022-11-14T07:05:06;9.0;94.0
38221;DHT22;24023;51.280;7.148;2022-11-14T07:10:08;9.0;94.1
38221;DHT22;24023;51.280;7.148;2022-11-14T07:15:08;9.0;94.1
38221;DHT22;24023;51.280;7.148;2022-11-14T07:20:09;8.7;94.9
38221;DHT22;24023;51.280;7.148;2022-11-14T07:25:07;8.7;94.9
38221;DHT22;24023;51.280;7.148;2022-11-14T07:30:10;8.7;94.9
38221;DHT22;24023;51.280;7.148;2022-11-14T07:35:07;8.7;95.5
38221;DHT22;24023;51.280;7.148;2022-11-14T07:40:09;8.7;95.5
38221;DHT22;24023;51.280;7.148;2022-11-14T07:45:10;8.9;95.0
38221;DHT22;24023;51.280;7.148;2022-11-14T07:50:08;8.9;95.0
38221;DHT22;24023;51.280;7.148;2022-11-14T07:55:06;8.9;95.0
38221;DHT22;24023;51.280;7.148;2022-11-14T08:00:13;9.0;94.9
38221;DHT22;24023;51.280;7.148;2022-11-14T08:05:06;9.0;94.9
38221;DHT22;24023;51.280;7.148;2022-11-14T08:10:08;9.0;95.9
38221;DHT22;24023;51.280;7.148;2022-11-14T08:15:10;9.0;95.9
38221;DHT22;24023;51.280;7.148;2022-11-14T08:20:09;9.0;95.9
38221;DHT22;24023;51.280;7.148;2022-11-14T08:25:07;9.1;95.6
38221;DHT22;24023;51.280;7.148;2022-11-14T08:30:10;9.1;95.6
38221;DHT22;24023;51.280;7.148;2022-11-14T08:35:06;8.7;96.7
38221;DHT22;24023;51.280;7.148;2022-11-14T08:40:09;8.4;97.8
38221;DHT22;24023;51.280;7.148;2022-11-14T08:45:09;8.4;97.8
38221;DHT22;24023;51.280;7.148;2022-11-14T08:50:08;8.4;97.8
38221;DHT22;24023;51.280;7.148;2022-11-14T08:55:06;8.5;97.7
38221;DHT22;24023;51.280;7.148;2022-11-14T09:00:12;8.5;97.7
38221;DHT22;24023;51.280;7.148;2022-11-14T09:05:07;8.7;98.3
38221;DHT22;24023;51.280;7.148;2022-11-14T09:10:08;8.7;98.3
38221;DHT22;24023;51.280;7.148;2022-11-14T09:15:08;8.6;98.7
38221;DHT22;24023;51.280;7.148;2022-11-14T09:20:08;8.6;98.7
38221;DHT22;24023;51.280;7.148;2022-11-14T09:25:07;8.6;98.7
38221;DHT22;24023;51.280;7.148;2022-11-14T09:30:11;8.6;98.9
38221;DHT22;24023;51.280;7.148;2022-11-14T09:35:07;8.6;98.9
38221;DHT22;24023;51.280;7.148;2022-11-14T09:40:10;8.5;99.5
38221;DHT22;24023;51.280;7.148;2022-11-14T09:45:12;8.5;99.5
38221;DHT22;24023;51.280;7.148;2022-11-14T09:50:12;8.8;99.2
38221;DHT22;24023;51.280;7.148;2022-11-14T09:55:10;8.8;99.2
38221;DHT22;24023;51.280;7.148;2022-11-14T10:00:13;8.8;99.2
38221;DHT22;24023;51.280;7.148;2022-11-14T10:05:18;8.9;99.5
38221;DHT22;24023;51.280;7.148;2022-11-14T10:10:24;9.0;99.4
38221;DHT22;24023;51.280;7.148;2022-11-14T10:15:21;9.0;99.4
38221;DHT22;24023;51.280;7.148;2022-11-14T10:20:12;9.0;99.4
38221;DHT22;24023;51.280;7.148;2022-11-14T10:25:19;9.3;99.4
38221;DHT22;24023;51.280;7.148;2022-11-14T10:30:11;9.3;99.4
38221;DHT22;24023;51.280;7.148;2022-11-14T10:35:11;9.1;99.9
38221;DHT22;24023;51.280;7.148;2022-11-14T10:40:15;9.1;99.9
38221;DHT22;24023;51.280;7.148;2022-11-14T10:45:16;9.4;99.7
38221;DHT22;24023;51.280;7.148;2022-11-14T10:50:16;9.4;99.7
38221;DHT22;24023;51.280;7.148;2022-11-14T10:55:13;9.4;99.7
38221;DHT22;24023;51.280;7.148;2022-11-14T11:00:14;9.5;99.6
38221;DHT22;24023;51.280;7.148;2022-11-14T11:05:14;9.5;99.6
38221;DHT22;24023;51.280;7.148;2022-11-14T11:15:14;9.5;99.8
38221;DHT22;24023;51.280;7.148;2022-11-14T11:20:29;9.5;99.8
38221;DHT22;24023;51.280;7.148;2022-11-14T11:25:23;9.9;99.2
38221;DHT22;24023;51.280;7.148;2022-11-14T11:30:18;9.9;99.2
38221;DHT22;24023;51.280;7.148;2022-11-14T11:35:10;9.6;99.2
38221;DHT22;24023;51.280;7.148;2022-11-14T11:40:15;9.6;99.2
38221;DHT22;24023;51.280;7.148;2022-11-14T11:45:14;9.6;99.5
38221;DHT22;24023;51.280;7.148;2022-11-14T11:50:14;9.6;99.5
38221;DHT22;24023;51.280;7.148;2022-11-14T11:55:15;9.6;99.5
38221;DHT22;24023;51.280;7.148;2022-11-14T12:00:16;9.6;99.9
38221;DHT22;24023;51.280;7.148;2022-11-14T12:05:12;9.6;99.9
38221;DHT22;24023;51.280;7.148;2022-11-14T12:10:15;9.6;99.9
38221;DHT22;24023;51.280;7.148;2022-11-14T12:15:16;9.6;99.9
38221;DHT22;24023;51.280;7.148;2022-11-14T12:20:20;9.8;99.9
38221;DHT22;24023;51.280;7.148;2022-11-14T12:25:35;9.8;99.9
38221;DHT22;24023;51.280;7.148;2022-11-14T12:30:12;9.8;99.9
38221;DHT22;24023;51.280;7.148;2022-11-14T12:35:12;10.4;99.3
38221;DHT22;24023;51.280;7.148;2022-11-14T12:40:21;10.3;99.8
38221;DHT22;24023;51.280;7.148;2022-11-14T12:45:55;10.3;99.8
38221;DHT22;24023;51.280;7.148;2022-11-14T12:50:30;10.1;99.9
38221;DHT22;24023;51.280;7.148;2022-11-14T12:55:52;10.1;99.9
38221;DHT22;24023;51.280;7.148;2022-11-14T13:00:12;10.1;99.9
38221;DHT22;24023;51.280;7.148;2022-11-14T13:05:46;10.2;99.9
38221;DHT22;24023;51.280;7.148;2022-11-14T13:10:22;10.2;99.9
38221;DHT22;24023;51.280;7.148;2022-11-14T13:25:16;10.5;99.9
38221;DHT22;24023;51.280;7.148;2022-11-14T13:30:09;10.5;99.9
38221;DHT22;24023;51.280;7.148;2022-11-14T13:35:12;10.4;99.8
38221;DHT22;24023;51.280;7.148;2022-11-14T13:40:13;10.4;99.8
38221;DHT22;24023;51.280;7.148;2022-11-14T13:45:24;10.2;99.9
38221;DHT22;24023;51.280;7.148;2022-11-14T13:50:10;10.2;99.9
38221;DHT22;24023;51.280;7.148;2022-11-14T13:55:15;10.4;99.6
38221;DHT22;24023;51.280;7.148;2022-11-14T14:00:14;10.4;99.6
38221;DHT22;24023;51.280;7.148;2022-11-14T14:05:15;10.4;99.6
38221;DHT22;24023;51.280;7.148;2022-11-14T14:10:24;10.3;99.9
38221;DHT22;24023;51.280;7.148;2022-11-14T14:15:16;10.3;99.9
38221;DHT22;24023;51.280;7.148;2022-11-14T14:20:16;10.1;99.9
38221;DHT22;24023;51.280;7.148;2022-11-14T14:25:15;10.1;99.9
38221;DHT22;24023;51.280;7.148;2022-11-14T14:30:12;10.1;99.9
38221;DHT22;24023;51.280;7.148;2022-11-14T14:35:23;10.2;99.9
38221;DHT22;24023;51.280;7.148;2022-11-14T14:40:22;10.2;99.9
38221;DHT22;24023;51.280;7.148;2022-11-14T14:45:14;10.3;99.9
38221;DHT22;24023;51.280;7.148;2022-11-14T14:50:15;10.3;99.9
38221;DHT22;24023;51.280;7.148;2022-11-14T14:55:21;10.3;99.9
38221;DHT22;24023;51.280;7.148;2022-11-14T15:00:19;10.3;99.9
38221;DHT22;24023;51.280;7.148;2022-11-14T15:05:06;10.3;99.9
38221;DHT22;24023;51.280;7.148;2022-11-14T15:10:20;10.1;99.9
38221;DHT22;24023;51.280;7.148;2022-11-14T15:15:11;10.1;99.9
38221;DHT22;24023;51.280;7.148;2022-11-14T15:20:20;9.9;99.9
38221;DHT22;24023;51.280;7.148;2022-11-14T15:25:17;9.9;99.9
38221;DHT22;24023;51.280;7.148;2022-11-14T15:30:20;9.9;99.9
38221;DHT22;24023;51.280;7.148;2022-11-14T15:35:09;9.7;99.9
38221;DHT22;24023;51.280;7.148;2022-11-14T15:40:16;9.7;99.9
38221;DHT22;24023;51.280;7.148;2022-11-14T15:45:20;9.7;99.9
38221;DHT22;24023;51.280;7.148;2022-11-14T15:50:26;9.7;99.9
38221;DHT22;24023;51.280;7.148;2022-11-14T15:55:12;9.7;99.9
38221;DHT22;24023;51.280;7.148;2022-11-14T16:00:13;9.7;99.9
38221;DHT22;24023;51.280;7.148;2022-11-14T16:05:10;9.7;99.9
38221;DHT22;24023;51.280;7.148;2022-11-14T16:10:13;9.8;99.9
38221;DHT22;24023;51.280;7.148;2022-11-14T16:15:08;9.8;99.9
38221;DHT22;24023;51.280;7.148;2022-11-14T16:20:14;9.8;99.9
38221;DHT22;24023;51.280;7.148;2022-11-14T16:25:11;9.8;99.9
38221;DHT22;24023;51.280;7.148;2022-11-14T16:30:11;9.8;99.9
38221;DHT22;24023;51.280;7.148;2022-11-14T16:35:11;9.8;99.9
38221;DHT22;24023;51.280;7.148;2022-11-14T16:40:13;9.8;99.9
38221;DHT22;24023;51.280;7.148;2022-11-14T16:45:09;9.7;99.9
38221;DHT22;24023;51.280;7.148;2022-11-14T16:50:09;9.7;99.9
38221;DHT22;24023;51.280;7.148;2022-11-14T16:55:07;9.7;99.9
38221;DHT22;24023;51.280;7.148;2022-11-14T17:00:13;9.7;99.9
38221;DHT22;24023;51.280;7.148;2022-11-14T17:05:07;9.7;99.9
38221;DHT22;24023;51.280;7.148;2022-11-14T17:10:08;9.7;99.9
38221;DHT22;24023;51.280;7.148;2022-11-14T17:15:08;9.7;99.9
38221;DHT22;24023;51.280;7.148;2022-11-14T17:20:09;9.7;99.9
38221;DHT22;24023;51.280;7.148;2022-11-14T17:25:06;9.7;99.9
38221;DHT22;24023;51.280;7.148;2022-11-14T17:30:11;9.8;99.9
38221;DHT22;24023;51.280;7.148;2022-11-14T17:35:08;9.8;99.9
38221;DHT22;24023;51.280;7.148;2022-11-14T17:40:09;9.8;99.9
38221;DHT22;24023;51.280;7.148;2022-11-14T17:45:10;9.8;99.9
38221;DHT22;24023;51.280;7.148;2022-11-14T17:50:08;9.6;99.9
38221;DHT22;24023;51.280;7.148;2022-11-14T17:55:07;9.6;99.9
38221;DHT22;24023;51.280;7.148;2022-11-14T18:00:12;9.6;99.9
38221;DHT22;24023;51.280;7.148;2022-11-14T18:05:06;9.6;99.9
38221;DHT22;24023;51.280;7.148;2022-11-14T18:10:08;9.6;99.9
38221;DHT22;24023;51.280;7.148;2022-11-14T18:15:08;9.5;99.9
38221;DHT22;24023;51.280;7.148;2022-11-14T18:20:08;9.5;99.9
38221;DHT22;24023;51.280;7.148;2022-11-14T18:25:07;9.7;99.9
38221;DHT22;24023;51.280;7.148;2022-11-14T18:30:11;9.7;99.9
38221;DHT22;24023;51.280;7.148;2022-11-14T18:35:07;9.7;99.9
38221;DHT22;24023;51.280;7.148;2022-11-14T18:40:09;9.3;99.9
38221;DHT22;24023;51.280;7.148;2022-11-14T18:45:09;9.3;99.9
38221;DHT22;24023;51.280;7.148;2022-11-14T18:50:08;9.3;99.9
38221;DHT22;24023;51.280;7.148;2022-11-14T18:55:07;9.3;99.9
38221;DHT22;24023;51.280;7.148;2022-11-14T19:00:12;9.6;99.9
38221;DHT22;24023;51.280;7.148;2022-11-14T19:05:07;9.6;99.9
38221;DHT22;24023;51.280;7.148;2022-11-14T19:10:08;9.6;99.9
38221;DHT22;24023;51.280;7.148;2022-11-14T19:15:09;9.4;99.9
38221;DHT22;24023;51.280;7.148;2022-11-14T19:20:10;9.4;99.9
38221;DHT22;24023;51.280;7.148;2022-11-14T19:25:07;9.1;99.9
38221;DHT22;24023;51.280;7.148;2022-11-14T19:30:10;9.1;99.9
38221;DHT22;24023;51.280;7.148;2022-11-14T19:35:07;9.1;99.9
38221;DHT22;24023;51.280;7.148;2022-11-14T19:40:08;9.2;99.9
38221;DHT22;24023;51.280;7.148;2022-11-14T19:45:10;9.2;99.9
38221;DHT22;24023;51.280;7.148;2022-11-14T19:50:08;9.0;99.9
38221;DHT22;24023;51.280;7.148;2022-11-14T19:55:07;9.0;99.9
38221;DHT22;24023;51.280;7.148;2022-11-14T20:00:13;9.0;99.9
38221;DHT22;24023;51.280;7.148;2022-11-14T20:05:07;9.0;99.9
38221;DHT22;24023;51.280;7.148;2022-11-14T20:10:09;9.0;99.9
38221;DHT22;24023;51.280;7.148;2022-11-14T20:15:09;9.0;99.9
38221;DHT22;24023;51.280;7.148;2022-11-14T20:20:08;9.0;99.9
38221;DHT22;24023;51.280;7.148;2022-11-14T20:25:07;9.0;99.9
38221;DHT22;24023;51.280;7.148;2022-11-14T20:30:11;8.9;99.9
38221;DHT22;24023;51.280;7.148;2022-11-14T20:35:06;8.9;99.9
38221;DHT22;24023;51.280;7.148;2022-11-14T20:40:08;8.8;99.9
38221;DHT22;24023;51.280;7.148;2022-11-14T20:45:09;8.8;99.9
38221;DHT22;24023;51.280;7.148;2022-11-14T20:50:08;9.0;99.9
38221;DHT22;24023;51.280;7.148;2022-11-14T20:55:07;9.0;99.9
38221;DHT22;24023;51.280;7.148;2022-11-14T21:00:11;9.0;99.9
38221;DHT22;24023;51.280;7.148;2022-11-14T21:05:08;9.1;99.9
38221;DHT22;24023;51.280;7.148;2022-11-14T21:11:15;9.1;99.9
38221;DHT22;24023;51.280;7.148;2022-11-14T21:15:08;9.3;99.9
38221;DHT22;24023;51.280;7.148;2022-11-14T21:20:09;9.3;99.9
38221;DHT22;24023;51.280;7.148;2022-11-14T21:25:07;9.3;99.9
38221;DHT22;24023;51.280;7.148;2022-11-14T21:30:10;9.5;99.9
38221;DHT22;24023;51.280;7.148;2022-11-14T21:35:07;9.5;99.9
38221;DHT22;24023;51.280;7.148;2022-11-14T21:40:09;9.7;99.9
38221;DHT22;24023;51.280;7.148;2022-11-14T21:45:11;9.7;99.9
38221;DHT22;24023;51.280;7.148;2022-11-14T21:50:09;10.0;99.9
38221;DHT22;24023;51.280;7.148;2022-11-14T21:55:07;10.0;99.9
38221;DHT22;24023;51.280;7.148;2022-11-14T22:00:12;10.0;99.9
38221;DHT22;24023;51.280;7.148;2022-11-14T22:05:07;10.1;99.9
38221;DHT22;24023;51.280;7.148;2022-11-14T22:10:08;10.2;99.9
38221;DHT22;24023;51.280;7.148;2022-11-14T22:15:08;10.2;99.9
38221;DHT22;24023;51.280;7.148;2022-11-14T22:20:09;10.4;99.9
38221;DHT22;24023;51.280;7.148;2022-11-14T22:25:07;10.4;99.9
38221;DHT22;24023;51.280;7.148;2022-11-14T22:30:10;10.4;99.9
38221;DHT22;24023;51.280;7.148;2022-11-14T22:35:06;10.4;99.9
38221;DHT22;24023;51.280;7.148;2022-11-14T22:40:09;10.4;99.9
38221;DHT22;24023;51.280;7.148;2022-11-14T22:45:09;10.5;99.9
38221;DHT22;24023;51.280;7.148;2022-11-14T22:50:08;10.5;99.9
38221;DHT22;24023;51.280;7.148;2022-11-14T22:55:07;10.5;99.9
38221;DHT22;24023;51.280;7.148;2022-11-14T23:00:20;10.6;99.9
38221;DHT22;24023;51.280;7.148;2022-11-14T23:05:08;10.6;99.9
38221;DHT22;24023;51.280;7.148;2022-11-14T23:10:08;10.9;99.9
38221;DHT22;24023;51.280;7.148;2022-11-14T23:15:08;10.9;99.9
38221;DHT22;24023;51.280;7.148;2022-11-14T23:20:09;10.9;99.9
38221;DHT22;24023;51.280;7.148;2022-11-14T23:25:07;10.9;99.9
38221;DHT22;24023;51.280;7.148;2022-11-14T23:30:10;10.9;99.9
38221;DHT22;24023;51.280;7.148;2022-11-14T23:35:06;11.1;99.9
38221;DHT22;24023;51.280;7.148;2022-11-14T23:40:09;11.1;99.9
38221;DHT22;24023;51.280;7.148;2022-11-14T23:45:11;11.1;99.9
38221;DHT22;24023;51.280;7.148;2022-11-14T23:50:08;11.1;99.9
38221;DHT22;24023;51.280;7.148;2022-11-14T23:55:07;11.1;99.9
